Time;durP1;ratioP1;P1;durP2;ratioP2;P2;SDS_P1;SDS_P2;PMS_P1;PMS_P2;Temp;Humidity;BMP_temperature;BMP_pressure;BME280_temperature;BME280_humidity;BME280_pressure;Samples;Min_cycle;Max_cycle;Signal;HPM_P1;HPM_P2
2021/10/21 00:01:05;;;;;;;16.75;6.58;;;;;;;17.92;59.62;102259.11;1731747;82;21023;-50
2021/10/21 00:03:32;;;;;;;13.85;6.37;;;;;;;17.93;59.57;102254.71;1738453;82;21046;-50
2021/10/21 00:05:59;;;;;;;17.35;6.62;;;;;;;17.92;59.58;102250.34;1736780;82;21022;-49
2021/10/21 00:08:26;;;;;;;14.43;6.30;;;;;;;17.92;59.58;102253.84;1736250;82;21574;-50
2021/10/21 00:10:53;;;;;;;13.58;6.20;;;;;;;17.91;59.56;102238.93;1737620;82;21041;-50
2021/10/21 00:13:21;;;;;;;14.43;6.45;;;;;;;17.91;59.65;102240.25;1738397;82;21510;-49
2021/10/21 00:15:49;;;;;;;14.75;7.08;;;;;;;17.89;59.82;102240.30;1738329;82;20995;-49
2021/10/21 00:18:16;;;;;;;17.98;7.33;;;;;;;17.89;59.80;102236.34;1737181;82;21030;-50
2021/10/21 00:20:43;;;;;;;14.35;7.08;;;;;;;17.91;59.79;102228.88;1735400;82;21003;-49
2021/10/21 00:23:10;;;;;;;12.37;5.90;;;;;;;17.90;59.95;102231.95;1735108;82;21074;-49
2021/10/21 00:25:37;;;;;;;16.57;6.35;;;;;;;17.89;59.92;102221.00;1735649;82;20983;-51
2021/10/21 00:28:04;;;;;;;14.10;6.47;;;;;;;17.89;59.96;102223.18;1727437;82;21062;-50
2021/10/21 00:30:31;;;;;;;9.38;5.75;;;;;;;17.89;59.99;102232.40;1728581;82;21031;-53
2021/10/21 00:32:59;;;;;;;17.10;6.50;;;;;;;17.88;59.87;102214.02;1730344;82;21015;-50
2021/10/21 00:35:26;;;;;;;13.83;6.50;;;;;;;17.87;59.90;102211.83;1730278;82;21015;-49
2021/10/21 00:37:53;;;;;;;16.42;6.47;;;;;;;17.89;60.06;102212.65;1727767;82;21055;-50
2021/10/21 00:40:22;;;;;;;15.40;5.92;;;;;;;17.89;60.05;102199.48;1728300;82;21527;-50
2021/10/21 00:42:49;;;;;;;14.65;6.33;;;;;;;17.89;59.95;102203.88;1717281;82;21080;-50
2021/10/21 00:45:18;;;;;;;15.53;6.72;;;;;;;17.88;59.89;102200.41;1726074;82;21106;-50
2021/10/21 00:47:45;;;;;;;12.45;5.50;;;;;;;17.88;59.80;102197.77;1726890;82;21066;-49
2021/10/21 00:50:12;;;;;;;13.90;6.50;;;;;;;17.88;59.72;102194.27;1727311;82;21047;-49
2021/10/21 00:52:40;;;;;;;11.40;5.70;;;;;;;17.88;59.71;102198.22;1727202;82;20976;-48
2021/10/21 00:55:08;;;;;;;10.78;6.03;;;;;;;17.88;59.62;102203.04;1727464;82;21019;-49
2021/10/21 00:57:36;;;;;;;14.85;6.33;;;;;;;17.88;59.64;102194.27;1710137;83;21616;-50
2021/10/21 01:00:05;;;;;;;17.15;6.80;;;;;;;17.87;59.50;102186.81;1703551;82;21015;-50
2021/10/21 01:02:32;;;;;;;10.28;5.75;;;;;;;17.88;59.57;102184.61;1730429;82;21015;-51
2021/10/21 01:04:59;;;;;;;13.58;6.20;;;;;;;17.89;59.62;102182.36;1729137;82;21070;-49
2021/10/21 01:07:28;;;;;;;16.30;6.00;;;;;;;17.92;59.63;102188.45;1727872;82;21562;-48
2021/10/21 01:09:56;;;;;;;15.63;5.87;;;;;;;17.91;59.49;102174.41;1726520;82;21567;-48
2021/10/21 01:12:23;;;;;;;13.93;6.12;;;;;;;17.91;59.51;102179.67;1733707;82;21030;-51
2021/10/21 01:14:49;;;;;;;10.58;5.67;;;;;;;17.90;59.55;102172.70;1727429;82;20987;-51
2021/10/21 01:17:16;;;;;;;16.20;7.30;;;;;;;17.91;59.64;102177.52;1727260;82;21070;-49
2021/10/21 01:19:43;;;;;;;15.13;6.47;;;;;;;17.91;59.79;102170.94;1728563;82;21015;-50
2021/10/21 01:22:09;;;;;;;14.60;5.58;;;;;;;17.91;59.73;102166.98;1730578;82;21027;-48
2021/10/21 01:24:36;;;;;;;14.85;7.28;;;;;;;17.91;59.59;102167.83;1730369;82;21066;-48
2021/10/21 01:27:04;;;;;;;13.62;6.03;;;;;;;17.93;59.66;102173.07;1734390;82;21562;-51
2021/10/21 01:29:31;;;;;;;9.65;5.87;;;;;;;17.93;59.58;102173.07;1729012;82;21011;-50
2021/10/21 01:31:58;;;;;;;15.08;5.83;;;;;;;17.93;59.55;102170.44;1729679;82;21046;-49
2021/10/21 01:34:25;;;;;;;12.68;6.10;;;;;;;17.93;59.44;102171.75;1730601;82;21471;-51
2021/10/21 01:36:53;;;;;;;14.47;5.65;;;;;;;17.93;59.31;102161.22;1730581;82;21019;-51
2021/10/21 01:39:21;;;;;;;9.63;6.00;;;;;;;17.95;59.31;102160.72;1727898;82;21093;-49
2021/10/21 01:41:48;;;;;;;14.93;6.33;;;;;;;17.95;59.29;102156.77;1727543;82;21106;-49
2021/10/21 01:44:14;;;;;;;14.38;6.53;;;;;;;17.95;59.26;102152.81;1727340;82;21504;-49
2021/10/21 01:46:41;;;;;;;13.80;5.17;;;;;;;17.95;59.22;102152.34;1726946;82;21059;-48
2021/10/21 01:49:07;;;;;;;10.18;5.40;;;;;;;17.96;59.17;102165.06;1728161;82;21051;-50
2021/10/21 01:51:34;;;;;;;12.78;6.33;;;;;;;17.97;59.08;102157.59;1726396;82;21034;-52
2021/10/21 01:54:01;;;;;;;8.85;5.10;;;;;;;17.96;59.11;102166.38;1730478;82;21019;-50
2021/10/21 01:56:27;;;;;;;15.05;5.67;;;;;;;17.96;59.09;102171.20;1730647;82;20979;-49
2021/10/21 01:58:54;;;;;;;11.90;5.85;;;;;;;17.95;59.17;102168.63;1728770;82;21007;-50
2021/10/21 02:01:21;;;;;;;13.60;5.60;;;;;;;17.96;59.28;102167.70;1727559;82;21007;-53
2021/10/21 02:03:47;;;;;;;14.70;5.60;;;;;;;17.97;59.20;102158.91;1727491;82;21022;-49
2021/10/21 02:06:14;;;;;;;11.70;5.45;;;;;;;17.95;59.17;102168.63;1727485;82;21054;-50
2021/10/21 02:08:41;;;;;;;8.40;5.80;;;;;;;17.95;59.17;102165.98;1723345;82;21101;-50
2021/10/21 02:11:10;;;;;;;9.53;5.10;;;;;;;17.97;59.37;102172.91;1726344;82;21043;-50
2021/10/21 02:13:36;;;;;;;9.70;4.95;;;;;;;17.97;59.27;102164.17;1725542;82;21042;-49
2021/10/21 02:16:04;;;;;;;12.98;5.62;;;;;;;17.97;59.17;102170.27;1739426;82;21031;-50
2021/10/21 02:18:31;;;;;;;9.40;5.00;;;;;;;17.97;59.17;102160.22;1728764;82;21031;-50
2021/10/21 02:20:58;;;;;;;10.45;5.35;;;;;;;17.97;59.21;102162.37;1728634;82;21042;-51
2021/10/21 02:23:25;;;;;;;11.15;5.40;;;;;;;17.97;59.34;102157.59;1729360;82;21522;-51
2021/10/21 02:25:52;;;;;;;16.17;5.80;;;;;;;17.98;59.42;102156.66;1730848;82;21066;-48
2021/10/21 02:28:18;;;;;;;11.65;6.15;;;;;;;17.98;59.49;102160.16;1730485;82;21051;-50
2021/10/21 02:30:45;;;;;;;16.23;6.67;;;;;;;17.98;59.57;102158.84;1728354;82;21015;-50
2021/10/21 02:33:13;;;;;;;14.05;6.05;;;;;;;17.99;59.46;102157.92;1727231;82;21003;-50
2021/10/21 02:35:41;;;;;;;10.18;5.33;;;;;;;17.98;59.41;102150.95;1727540;82;20951;-53
2021/10/21 02:38:07;;;;;;;15.28;6.37;;;;;;;17.99;59.42;102158.41;1724156;82;21003;-50
2021/10/21 02:40:34;;;;;;;16.15;5.10;;;;;;;18.00;59.37;102157.03;1729956;82;21066;-50
2021/10/21 02:43:00;;;;;;;14.20;5.97;;;;;;;18.00;59.52;102157.03;1727898;82;21011;-51
2021/10/21 02:45:27;;;;;;;12.47;5.37;;;;;;;18.00;59.54;102149.58;1729172;82;21038;-48
2021/10/21 02:47:54;;;;;;;13.22;6.40;;;;;;;18.01;59.59;102153.47;1725151;82;21058;-50
2021/10/21 02:50:21;;;;;;;7.62;4.90;;;;;;;18.01;59.75;102155.27;1732842;82;21043;-48
2021/10/21 02:52:48;;;;;;;12.78;6.60;;;;;;;18.01;59.61;102150.84;1719380;82;21062;-51
2021/10/21 02:55:14;;;;;;;19.50;5.42;;;;;;;18.01;59.58;102150.00;1728076;82;21022;-50
2021/10/21 02:57:41;;;;;;;13.08;5.42;;;;;;;18.01;59.57;102155.27;1730409;82;20996;-50
2021/10/21 03:00:10;;;;;;;11.57;5.78;;;;;;;18.00;59.50;102150.89;1730627;82;21515;-50
2021/10/21 03:02:37;;;;;;;17.37;5.97;;;;;;;18.01;59.44;102148.69;1728554;82;21022;-49
2021/10/21 03:05:05;;;;;;;10.93;4.95;;;;;;;18.01;59.36;102152.63;1727622;82;21050;-50
2021/10/21 03:07:33;;;;;;;14.15;5.83;;;;;;;18.01;59.24;102144.73;1721814;82;21010;-49
2021/10/21 03:09:59;;;;;;;10.85;5.22;;;;;;;18.00;59.08;102146.94;1727362;82;20994;-50
2021/10/21 03:12:26;;;;;;;11.43;5.35;;;;;;;18.00;59.15;102142.55;1728388;82;21090;-50
2021/10/21 03:14:53;;;;;;;10.80;5.10;;;;;;;18.00;59.17;102142.98;1726414;82;20983;-50
2021/10/21 03:17:20;;;;;;;13.00;5.35;;;;;;;18.00;59.26;102137.28;1722075;82;21047;-48
2021/10/21 03:19:47;;;;;;;8.50;4.35;;;;;;;18.01;59.17;102139.46;1727339;82;21547;-49
2021/10/21 03:22:14;;;;;;;11.30;4.75;;;;;;;18.01;59.16;102138.15;1728416;82;21024;-50
2021/10/21 03:24:41;;;;;;;14.78;6.37;;;;;;;18.01;59.19;102139.46;1730581;82;21050;-53
2021/10/21 03:27:08;;;;;;;14.35;5.62;;;;;;;17.99;59.31;102134.70;1732447;82;21042;-51
2021/10/21 03:29:36;;;;;;;11.18;5.28;;;;;;;18.00;59.55;102136.41;1736139;82;21108;-50
2021/10/21 03:32:03;;;;;;;9.53;4.47;;;;;;;18.01;59.65;102131.56;1736936;82;21569;-50
2021/10/21 03:34:32;;;;;;;12.85;5.17;;;;;;;18.00;59.68;102129.38;1737720;82;21022;-50
2021/10/21 03:36:58;;;;;;;13.83;5.55;;;;;;;18.02;59.71;102133.27;1731419;82;21034;-51
2021/10/21 03:39:26;;;;;;;10.20;5.20;;;;;;;18.02;59.76;102125.37;1735663;82;21464;-51
2021/10/21 03:41:52;;;;;;;13.43;5.80;;;;;;;18.02;59.83;102130.64;1735189;81;21081;-50
2021/10/21 03:44:19;;;;;;;20.65;6.12;;;;;;;18.01;60.09;102122.34;1737373;82;21017;-50
2021/10/21 03:46:45;;;;;;;14.78;6.10;;;;;;;18.01;60.38;102118.39;1738484;82;21035;-49
2021/10/21 03:49:12;;;;;;;21.48;7.53;;;;;;;18.02;60.55;102120.09;1737989;82;21066;-50
2021/10/21 03:51:38;;;;;;;12.73;5.17;;;;;;;18.02;60.64;102120.09;1735626;82;21022;-49
2021/10/21 03:54:05;;;;;;;18.82;6.58;;;;;;;18.00;60.78;102119.28;1737738;82;21057;-53
2021/10/21 03:56:32;;;;;;;11.78;5.05;;;;;;;17.99;60.81;102114.47;1733260;82;21022;-50
2021/10/21 03:58:59;;;;;;;12.80;5.87;;;;;;;18.00;60.87;102114.89;1740750;81;21518;-52
2021/10/21 04:01:26;;;;;;;11.45;5.72;;;;;;;17.99;60.76;102123.69;1734348;82;21010;-50
2021/10/21 04:03:53;;;;;;;14.07;5.30;;;;;;;18.01;60.85;102117.08;1725847;81;21030;-51
2021/10/21 04:06:19;;;;;;;17.00;6.87;;;;;;;18.00;60.94;102110.06;1737513;82;21018;-50
2021/10/21 04:08:46;;;;;;;14.18;6.12;;;;;;;18.01;61.00;102105.22;1738627;82;21026;-52
2021/10/21 04:11:13;;;;;;;12.47;5.72;;;;;;;18.02;61.07;102101.66;1737994;82;21006;-51
2021/10/21 04:13:39;;;;;;;13.18;5.75;;;;;;;18.02;61.10;102096.39;1735656;81;21514;-50
2021/10/21 04:16:06;;;;;;;17.95;5.62;;;;;;;18.01;60.87;102096.84;1735098;81;21027;-50
2021/10/21 04:18:33;;;;;;;11.05;5.45;;;;;;;18.00;60.84;102090.31;1735633;82;21085;-50
2021/10/21 04:21:00;;;;;;;11.22;4.78;;;;;;;17.98;60.68;102082.92;1735149;81;21514;-52
2021/10/21 04:23:26;;;;;;;14.50;5.87;;;;;;;17.97;60.72;102082.52;1736294;82;21069;-51
2021/10/21 04:25:53;;;;;;;12.85;5.45;;;;;;;17.97;60.61;102082.52;1738333;82;21538;-50
2021/10/21 04:28:20;;;;;;;18.35;6.15;;;;;;;17.97;60.54;102080.73;1738255;82;21062;-52
2021/10/21 04:30:46;;;;;;;13.43;5.40;;;;;;;17.97;60.50;102081.21;1736272;82;21054;-50
2021/10/21 04:33:13;;;;;;;11.83;5.12;;;;;;;17.97;60.49;102079.89;1736992;82;21050;-50
2021/10/21 04:35:39;;;;;;;10.50;5.03;;;;;;;17.96;60.35;102078.16;1737451;82;21117;-49
2021/10/21 04:38:06;;;;;;;12.50;5.45;;;;;;;17.95;60.25;102068.06;1738312;82;21011;-49
2021/10/21 04:40:33;;;;;;;15.60;5.10;;;;;;;17.96;60.02;102066.30;1738410;82;21014;-50
2021/10/21 04:42:59;;;;;;;10.43;4.87;;;;;;;17.96;59.92;102068.94;1735170;82;21046;-51
2021/10/21 04:45:27;;;;;;;12.88;5.37;;;;;;;17.95;59.78;102069.38;1733898;82;21503;-50
2021/10/21 04:47:56;;;;;;;9.73;4.58;;;;;;;17.95;59.75;102075.13;1737286;81;20994;-51
2021/10/21 04:50:24;;;;;;;15.40;5.95;;;;;;;17.94;59.63;102067.67;1735001;81;21007;-51
2021/10/21 04:52:53;;;;;;;12.88;5.50;;;;;;;17.95;59.57;102077.77;1731508;82;20986;-48
2021/10/21 04:55:21;;;;;;;8.13;4.37;;;;;;;17.97;59.64;102068.04;1738336;82;21003;-53
2021/10/21 04:57:50;;;;;;;11.88;4.87;;;;;;;17.97;59.27;102067.56;1737260;82;21066;-51
2021/10/21 05:00:18;;;;;;;9.35;4.17;;;;;;;17.96;59.04;102062.35;1735531;82;21027;-48
2021/10/21 05:02:45;;;;;;;11.97;4.62;;;;;;;17.97;58.84;102064.09;1729101;81;21062;-49
2021/10/21 05:05:12;;;;;;;8.93;4.60;;;;;;;17.97;58.72;102064.09;1738343;82;21090;-50
2021/10/21 05:07:39;;;;;;;11.68;4.62;;;;;;;17.98;58.75;102063.16;1737132;82;21042;-51
2021/10/21 05:10:09;;;;;;;11.25;5.20;;;;;;;17.99;58.81;102051.73;1735193;81;21510;-50
2021/10/21 05:12:37;;;;;;;12.10;4.67;;;;;;;18.00;58.77;102058.70;1725560;82;21026;-51
2021/10/21 05:15:05;;;;;;;11.88;4.17;;;;;;;18.02;58.46;102051.63;1734511;82;20982;-51
2021/10/21 05:17:32;;;;;;;9.05;4.22;;;;;;;18.03;58.17;102063.89;1726484;82;21495;-51
2021/10/21 05:19:59;;;;;;;9.80;4.35;;;;;;;18.05;58.25;102056.80;1737417;81;21571;-50
2021/10/21 05:22:26;;;;;;;11.33;4.00;;;;;;;18.05;58.11;102054.17;1738513;82;21023;-49
2021/10/21 05:24:54;;;;;;;13.28;5.47;;;;;;;18.07;58.03;102058.94;1738103;82;21496;-49
2021/10/21 05:27:22;;;;;;;12.63;4.80;;;;;;;18.08;58.15;102058.00;1735583;82;21022;-49
2021/10/21 05:29:48;;;;;;;12.43;4.47;;;;;;;18.11;58.06;102057.92;1736846;82;21015;-50
2021/10/21 05:32:15;;;;;;;8.38;4.47;;;;;;;18.12;58.09;102055.68;1730908;82;21054;-50
2021/10/21 05:34:45;;;;;;;14.40;5.05;;;;;;;18.14;58.13;102059.12;1735340;81;21487;-49
2021/10/21 05:37:10;;;;;;;15.45;4.78;;;;;;;18.15;57.82;102051.64;1735437;82;21002;-48
2021/10/21 05:39:39;;;;;;;11.03;4.22;;;;;;;18.16;57.75;102052.91;1737205;81;21042;-50
2021/10/21 05:42:05;;;;;;;10.82;4.80;;;;;;;18.18;57.80;102050.20;1738612;82;20987;-48
2021/10/21 05:44:34;;;;;;;10.05;4.53;;;;;;;18.20;57.85;102056.29;1737736;82;21014;-51
2021/10/21 05:47:00;;;;;;;9.95;3.87;;;;;;;18.22;57.83;102055.33;1731429;82;21046;-52
2021/10/21 05:49:27;;;;;;;9.00;4.42;;;;;;;18.24;57.87;102052.64;1737886;82;21490;-52
2021/10/21 05:51:54;;;;;;;14.43;5.50;;;;;;;18.25;57.91;102054.38;1732107;82;20975;-52
2021/10/21 05:54:20;;;;;;;12.25;4.55;;;;;;;18.26;57.96;102061.39;1741540;82;21031;-50
2021/10/21 05:56:48;;;;;;;9.25;3.87;;;;;;;18.27;57.65;102049.92;1736176;81;21483;-51
2021/10/21 05:59:14;;;;;;;7.37;3.83;;;;;;;18.29;57.63;102058.63;1735930;82;21054;-53
2021/10/21 06:01:41;;;;;;;14.75;4.22;;;;;;;18.32;57.46;102057.23;1729573;82;20998;-51
2021/10/21 06:04:08;;;;;;;15.32;5.03;;;;;;;18.34;57.36;102054.09;1738373;81;21471;-52
2021/10/21 06:06:37;;;;;;;9.63;4.00;;;;;;;18.36;57.43;102050.47;1724677;82;21024;-52
2021/10/21 06:09:04;;;;;;;13.88;5.90;;;;;;;18.39;57.36;102052.14;1740976;82;20979;-52
2021/10/21 06:11:35;;;;;;;10.00;4.80;;;;;;;18.42;57.29;102052.89;1746244;82;21042;-50
2021/10/21 06:14:02;;;;;;;15.30;4.40;;;;;;;18.46;57.33;102045.80;1747223;82;21015;-53
2021/10/21 06:16:30;;;;;;;12.53;4.92;;;;;;;18.50;57.28;102047.42;1740033;82;20986;-52
2021/10/21 06:18:56;;;;;;;13.88;4.83;;;;;;;18.53;57.27;102053.44;1731102;81;21489;-50
2021/10/21 06:21:25;;;;;;;14.07;4.80;;;;;;;18.56;57.17;102052.48;1737362;82;21001;-54
2021/10/21 06:23:52;;;;;;;12.40;4.53;;;;;;;18.59;57.07;102053.67;1740859;82;21054;-51
2021/10/21 06:26:19;;;;;;;10.78;4.55;;;;;;;18.62;57.21;102060.17;1744581;82;21050;-51
2021/10/21 06:28:50;;;;;;;12.73;4.15;;;;;;;18.63;57.17;102055.30;1723194;82;21077;-51
2021/10/21 06:31:20;;;;;;;11.33;4.87;;;;;;;18.70;57.05;102054.18;1731458;82;20975;-51
2021/10/21 06:33:48;;;;;;;10.23;3.75;;;;;;;18.77;56.66;102049.11;1733843;82;21024;-52
2021/10/21 06:36:15;;;;;;;16.02;5.55;;;;;;;18.87;56.54;102049.19;1724945;82;21022;-50
2021/10/21 06:38:44;;;;;;;12.65;4.35;;;;;;;18.95;56.43;102051.09;1730186;82;21033;-53
2021/10/21 06:41:11;;;;;;;11.05;4.45;;;;;;;19.03;55.84;102047.72;1738352;82;21066;-50
2021/10/21 06:43:37;;;;;;;13.03;4.87;;;;;;;19.05;56.01;102035.78;1726147;82;21557;-51
2021/10/21 06:46:06;;;;;;;11.95;5.33;;;;;;;19.05;56.16;102040.60;1734413;82;20999;-50
2021/10/21 06:48:33;;;;;;;13.13;5.28;;;;;;;19.06;56.35;102034.39;1735882;82;21034;-52
2021/10/21 06:51:00;;;;;;;13.95;5.30;;;;;;;19.05;56.61;102035.78;1735478;82;21023;-51
2021/10/21 06:53:27;;;;;;;10.48;4.20;;;;;;;19.05;56.63;102032.69;1736970;82;21011;-51
2021/10/21 06:55:55;;;;;;;14.93;5.17;;;;;;;19.04;56.27;102036.23;1735521;82;21085;-51
2021/10/21 06:58:22;;;;;;;14.03;5.03;;;;;;;19.05;56.12;102041.05;1733512;81;20969;-50
2021/10/21 07:00:48;;;;;;;11.43;4.92;;;;;;;19.04;56.12;102038.86;1723476;82;21027;-52
2021/10/21 07:03:15;;;;;;;9.88;4.50;;;;;;;19.05;56.37;102056.87;1725645;82;21030;-53
2021/10/21 07:05:45;;;;;;;13.35;5.03;;;;;;;19.06;56.25;102043.63;1732777;82;21488;-51
2021/10/21 07:08:12;;;;;;;12.15;4.53;;;;;;;19.08;56.31;102045.75;1732445;82;21028;-54
2021/10/21 07:10:40;;;;;;;12.78;3.98;;;;;;;19.08;55.85;102033.87;1738382;82;21086;-55
2021/10/21 07:13:08;;;;;;;11.83;4.70;;;;;;;19.08;55.76;102025.97;1731189;82;21018;-53
2021/10/21 07:15:37;;;;;;;11.35;4.92;;;;;;;19.08;55.78;102020.69;1734731;82;21619;-52
2021/10/21 07:18:03;;;;;;;14.33;4.85;;;;;;;19.09;55.76;102011.88;1723564;82;21012;-52
2021/10/21 07:20:31;;;;;;;9.73;4.90;;;;;;;19.10;55.61;102016.21;1728141;82;21003;-50
2021/10/21 07:22:58;;;;;;;11.08;4.33;;;;;;;19.12;55.73;102017.05;1737390;82;21011;-52
2021/10/21 07:25:27;;;;;;;11.75;4.60;;;;;;;19.13;55.55;102020.08;1724059;82;21034;-52
2021/10/21 07:27:56;;;;;;;11.57;4.83;;;;;;;19.18;55.65;102017.27;1733597;82;20947;-53
2021/10/21 07:30:25;;;;;;;12.43;5.00;;;;;;;19.18;55.79;102022.09;1694641;83;21061;-53
2021/10/21 07:32:52;;;;;;;14.40;4.72;;;;;;;19.20;55.76;102014.98;1691109;83;21121;-51
2021/10/21 07:35:19;;;;;;;14.45;5.10;;;;;;;19.24;55.63;102016.59;1691948;84;21072;-53
2021/10/21 07:37:47;;;;;;;10.60;4.55;;;;;;;19.25;55.64;101997.18;1687817;85;21076;-49
2021/10/21 07:40:14;;;;;;;13.08;4.58;;;;;;;19.26;55.35;101997.59;1694254;83;21022;-51
2021/10/21 07:42:42;;;;;;;12.68;4.75;;;;;;;19.27;54.96;101994.02;1686364;85;21523;-54
2021/10/21 07:45:09;;;;;;;13.18;4.67;;;;;;;19.30;54.91;101992.60;1700269;83;21020;-52
2021/10/21 07:47:39;;;;;;;12.68;4.65;;;;;;;19.31;55.15;101986.39;1684482;83;21020;-52
2021/10/21 07:50:07;;;;;;;13.93;4.90;;;;;;;19.34;55.27;101990.28;1694194;83;21054;-52
2021/10/21 07:52:37;;;;;;;12.00;4.78;;;;;;;19.36;55.18;101985.80;1693565;83;21511;-53
2021/10/21 07:55:07;;;;;;;11.65;3.87;;;;;;;19.36;55.04;101987.13;1687345;83;21070;-51
2021/10/21 07:57:34;;;;;;;13.43;4.53;;;;;;;19.39;55.03;101980.87;1692578;83;21046;-51
2021/10/21 08:00:03;;;;;;;13.20;4.65;;;;;;;19.40;54.84;101980.80;1694851;83;21078;-52
2021/10/21 08:02:32;;;;;;;14.30;5.35;;;;;;;19.40;54.81;101983.44;1690767;83;21356;-52
2021/10/21 08:04:59;;;;;;;15.25;4.78;;;;;;;19.42;54.98;101986.88;1692254;83;21037;-51
2021/10/21 08:07:26;;;;;;;10.35;4.85;;;;;;;19.44;55.28;101987.68;1692781;83;21023;-53
2021/10/21 08:09:52;;;;;;;9.90;4.62;;;;;;;19.48;55.21;101982.67;1687118;83;20986;-51
2021/10/21 08:12:19;;;;;;;11.57;4.35;;;;;;;19.52;55.08;101977.27;1690358;83;21019;-53
2021/10/21 08:14:46;;;;;;;8.55;4.05;;;;;;;19.54;55.02;101966.21;1698038;83;21024;-50
2021/10/21 08:17:14;;;;;;;16.23;4.85;;;;;;;19.55;54.72;101976.70;1690804;84;21050;-55
2021/10/21 08:19:41;;;;;;;11.22;4.80;;;;;;;19.58;54.72;101973.09;1694153;83;21030;-55
2021/10/21 08:22:08;;;;;;;12.15;4.58;;;;;;;19.61;54.44;101971.63;1692732;85;21497;-53
2021/10/21 08:24:36;;;;;;;10.68;4.90;;;;;;;19.62;54.29;101974.69;1694739;83;21007;-50
2021/10/21 08:27:03;;;;;;;9.90;4.35;;;;;;;19.63;54.37;101968.02;1707450;82;21010;-52
2021/10/21 08:29:30;;;;;;;9.68;4.70;;;;;;;19.66;54.21;101963.08;1742005;82;21568;-56
2021/10/21 08:32:03;;;;;;;10.63;4.62;;;;;;;19.69;54.17;101955.02;1744862;82;21058;-52
2021/10/21 08:34:32;;;;;;;15.58;5.30;;;;;;;19.71;54.04;101954.49;1732513;82;21082;-50
2021/10/21 08:37:00;;;;;;;13.22;4.90;;;;;;;19.73;54.02;101960.57;1690412;84;20987;-51
2021/10/21 08:39:26;;;;;;;13.43;4.60;;;;;;;19.72;53.63;101949.14;1681375;84;20983;-50
2021/10/21 08:41:53;;;;;;;12.15;4.85;;;;;;;19.72;53.36;101944.34;1684372;84;20968;-53
2021/10/21 08:44:20;;;;;;;13.35;4.42;;;;;;;19.73;53.36;101941.63;1683240;84;21039;-51
2021/10/21 08:46:51;;;;;;;11.78;5.08;;;;;;;19.73;53.41;101938.99;1676154;84;21031;-51
2021/10/21 08:49:18;;;;;;;7.87;4.33;;;;;;;19.76;53.49;101936.23;1674114;84;21071;-51
2021/10/21 08:51:46;;;;;;;13.95;4.92;;;;;;;19.79;53.52;101932.59;1682021;84;20991;-53
2021/10/21 08:54:12;;;;;;;15.72;5.65;;;;;;;19.79;53.34;101937.88;1680477;84;21069;-53
2021/10/21 08:56:39;;;;;;;10.03;4.10;;;;;;;19.81;53.25;101929.42;1676820;84;21042;-53
2021/10/21 08:59:06;;;;;;;12.28;4.67;;;;;;;19.83;52.91;101931.54;1679138;84;21055;-56
2021/10/21 09:01:43;;;;;;;12.75;4.72;;;;;;;19.82;53.09;101917.50;1676348;84;21149;-53
2021/10/21 09:09:27;;;;;;;10.90;4.28;;;;;;;19.88;53.14;101911.95;1594768;88;21089;-54
2021/10/21 09:12:09;;;;;;;12.23;4.05;;;;;;;19.91;53.06;101912.27;1639757;86;21066;-55
2021/10/21 09:14:43;;;;;;;11.35;4.80;;;;;;;19.91;52.83;101907.84;1639841;86;21085;-52
2021/10/21 09:17:13;;;;;;;12.15;5.15;;;;;;;19.92;53.05;101904.75;1605996;88;21625;-50
2021/10/21 09:19:41;;;;;;;11.08;4.97;;;;;;;19.93;53.17;101901.17;1619649;87;21073;-49
2021/10/21 09:22:23;;;;;;;11.38;4.80;;;;;;;19.95;53.27;101903.28;1617776;87;21585;-52
2021/10/21 09:24:51;;;;;;;8.23;4.33;;;;;;;19.96;53.35;101891.81;1567836;90;21542;-53
2021/10/21 09:27:20;;;;;;;11.75;5.15;;;;;;;20.01;53.05;101880.59;1559529;90;21062;-52
2021/10/21 09:29:53;;;;;;;12.65;5.10;;;;;;;20.02;53.09;101879.66;1541268;91;21100;-52
2021/10/21 09:32:29;;;;;;;13.75;4.80;;;;;;;20.03;53.25;101878.75;1498462;95;21130;-51
2021/10/21 09:35:02;;;;;;;10.08;4.42;;;;;;;20.03;53.06;101880.91;1510761;94;21066;-55
2021/10/21 09:37:33;;;;;;;11.45;4.30;;;;;;;20.04;52.73;101871.20;1449077;99;21109;-54
2021/10/21 09:40:05;;;;;;;13.13;4.77;;;;;;;20.03;52.65;101867.69;1449486;99;21666;-55
2021/10/21 09:42:42;;;;;;;12.20;5.05;;;;;;;20.05;52.72;101874.25;1449536;98;21150;-52
2021/10/21 09:45:19;;;;;;;9.23;3.95;;;;;;;20.05;52.68;101866.33;1449171;99;21706;-53
2021/10/21 09:47:51;;;;;;;15.20;5.85;;;;;;;20.05;52.46;101846.02;1448513;99;21128;-51
2021/10/21 09:50:39;;;;;;;14.13;4.40;;;;;;;20.06;52.25;101848.21;1447806;99;21640;-50
2021/10/21 09:53:22;;;;;;;8.38;4.30;;;;;;;20.06;52.06;101845.57;1443066;99;21531;-51
2021/10/21 09:56:06;;;;;;;9.38;4.22;;;;;;;20.09;52.04;101846.77;1449727;99;21126;-50
2021/10/21 09:58:35;;;;;;;12.00;4.90;;;;;;;20.12;51.79;101842.20;1447564;99;21660;-53
2021/10/21 10:01:09;;;;;;;12.55;5.12;;;;;;;20.14;51.70;101842.12;1445805;98;21166;-54
2021/10/21 10:03:39;;;;;;;10.82;4.37;;;;;;;20.13;51.91;101843.91;1445847;99;21638;-54
2021/10/21 10:06:07;;;;;;;;;;;;;;;20.13;52.12;101833.33;1430444;100;21099;-50
2021/10/21 10:08:34;;;;;;;11.83;4.03;;;;;;;20.12;51.97;101826.80;1424097;100;20461;-52
2021/10/21 10:11:08;;;;;;;10.78;4.28;;;;;;;20.11;51.84;101826.42;1441826;99;21169;-53
2021/10/21 10:13:40;;;;;;;11.60;4.92;;;;;;;20.10;51.99;101822.05;1473035;95;21179;-54
2021/10/21 10:16:07;;;;;;;10.48;4.35;;;;;;;20.12;51.62;101825.48;1481023;96;21171;-54
2021/10/21 10:18:37;;;;;;;8.83;4.20;;;;;;;20.10;51.82;101819.41;1491289;96;21649;-52
2021/10/21 10:21:25;;;;;;;12.85;4.75;;;;;;;20.09;51.60;101819.86;1491194;95;21119;-51
2021/10/21 10:24:05;;;;;;;13.18;4.30;;;;;;;20.08;51.71;101818.62;1491155;95;21161;-52
2021/10/21 10:26:50;;;;;;;11.25;4.12;;;;;;;20.09;51.72;101812.42;1474164;97;21086;-53
2021/10/21 10:29:33;;;;;;;13.53;4.80;;;;;;;20.12;51.63;101805.20;1485798;95;21197;-51
2021/10/21 10:32:00;;;;;;;12.28;4.65;;;;;;;20.14;51.92;101799.84;1487783;95;21122;-51
2021/10/21 10:34:40;;;;;;;8.18;4.15;;;;;;;20.16;52.21;101797.99;1534106;90;21593;-53
2021/10/21 10:37:20;;;;;;;15.72;4.58;;;;;;;20.16;52.21;101796.67;1572361;90;21597;-52
2021/10/21 10:39:57;;;;;;;10.35;4.20;;;;;;;20.17;52.19;101797.08;1577235;90;21541;-51
2021/10/21 10:42:43;;;;;;;11.05;4.42;;;;;;;20.18;52.00;101789.53;1575396;90;21617;-52
2021/10/21 10:45:12;;;;;;;11.85;4.50;;;;;;;20.18;51.71;101788.20;1571906;90;21041;-50
2021/10/21 10:47:51;;;;;;;10.72;4.17;;;;;;;20.18;51.59;101789.53;1584672;90;21065;-52
2021/10/21 10:50:26;;;;;;;9.08;3.95;;;;;;;20.19;51.69;101775.41;1577113;90;21557;-52
2021/10/21 10:52:58;;;;;;;8.53;4.35;;;;;;;20.21;51.56;101782.83;1581507;90;21590;-52
2021/10/21 10:55:49;;;;;;;8.28;4.30;;;;;;;20.25;51.62;101781.77;1575190;90;21479;-52
2021/10/21 10:58:26;;;;;;;8.33;3.72;;;;;;;20.29;51.55;101774.09;1502126;95;21148;-52
2021/10/21 11:00:58;;;;;;;14.23;4.80;;;;;;;20.31;51.18;101768.27;1499265;95;21642;-51
2021/10/21 11:03:42;;;;;;;14.47;4.50;;;;;;;20.31;51.06;101770.91;1522489;93;21073;-56
2021/10/21 11:06:14;;;;;;;7.87;4.10;;;;;;;20.31;51.20;101765.63;1497149;95;21153;-50
2021/10/21 11:11:51;;;;;;;11.18;4.55;;;;;;;20.32;50.90;101763.36;1495168;95;21138;-52
2021/10/21 11:14:21;;;;;;;13.45;4.42;;;;;;;20.33;50.92;101765.09;1516598;93;21049;-52
2021/10/21 11:16:52;;;;;;;10.82;4.53;;;;;;;20.34;51.15;101758.86;1515975;94;21116;-52
2021/10/21 11:19:43;;;;;;;13.32;4.30;;;;;;;20.36;51.07;101749.06;1510986;95;21073;-52
2021/10/21 11:22:24;;;;;;;14.38;4.62;;;;;;;20.38;50.66;101748.53;1510307;93;21097;-51
2021/10/21 11:24:57;;;;;;;13.70;4.58;;;;;;;20.36;50.91;101737.17;1465648;96;22581;-53
2021/10/21 11:27:37;;;;;;;14.93;4.22;;;;;;;20.36;50.52;101729.24;1467418;96;21127;-51
2021/10/21 11:30:15;;;;;;;13.28;5.40;;;;;;;20.35;50.74;101730.19;1456019;96;21121;-53
2021/10/21 11:32:42;;;;;;;11.03;4.35;;;;;;;20.35;50.86;101723.58;1471152;96;21173;-54
2021/10/21 11:35:19;;;;;;;10.05;4.40;;;;;;;20.35;50.68;101719.61;1490872;95;21126;-53